sensor_id;sensor_type;location;lat;lon;timestamp;P1;durP1;ratioP1;P2;durP2;ratioP2
11121;SDS011;5615;49.304;10.576;2022-07-24T00:00:40;14.95;;;13.15;;
11121;SDS011;5615;49.304;10.576;2022-07-24T00:03:07;13.93;;;12.63;;
11121;SDS011;5615;49.304;10.576;2022-07-24T00:05:34;14.02;;;12.20;;
11121;SDS011;5615;49.304;10.576;2022-07-24T00:08:01;14.07;;;12.68;;
11121;SDS011;5615;49.304;10.576;2022-07-24T00:10:28;14.13;;;12.77;;
11121;SDS011;5615;49.304;10.576;2022-07-24T00:12:56;16.05;;;12.95;;
11121;SDS011;5615;49.304;10.576;2022-07-24T00:15:24;15.00;;;13.50;;
11121;SDS011;5615;49.304;10.576;2022-07-24T00:17:50;14.65;;;13.15;;
11121;SDS011;5615;49.304;10.576;2022-07-24T00:20:17;14.18;;;12.75;;
11121;SDS011;5615;49.304;10.576;2022-07-24T00:22:44;17.83;;;13.02;;
11121;SDS011;5615;49.304;10.576;2022-07-24T00:25:10;14.80;;;13.05;;
11121;SDS011;5615;49.304;10.576;2022-07-24T00:27:37;16.05;;;13.45;;
11121;SDS011;5615;49.304;10.576;2022-07-24T00:30:04;15.00;;;13.50;;
11121;SDS011;5615;49.304;10.576;2022-07-24T00:32:32;14.52;;;13.02;;
11121;SDS011;5615;49.304;10.576;2022-07-24T00:34:59;16.90;;;13.23;;
11121;SDS011;5615;49.304;10.576;2022-07-24T00:37:26;14.00;;;12.60;;
11121;SDS011;5615;49.304;10.576;2022-07-24T00:39:53;15.68;;;12.93;;
11121;SDS011;5615;49.304;10.576;2022-07-24T00:42:19;13.85;;;12.60;;
11121;SDS011;5615;49.304;10.576;2022-07-24T00:44:46;15.50;;;12.65;;
11121;SDS011;5615;49.304;10.576;2022-07-24T00:47:12;14.75;;;13.25;;
11121;SDS011;5615;49.304;10.576;2022-07-24T00:49:40;14.35;;;13.02;;
11121;SDS011;5615;49.304;10.576;2022-07-24T00:52:07;14.85;;;13.35;;
11121;SDS011;5615;49.304;10.576;2022-07-24T00:54:34;13.93;;;12.52;;
11121;SDS011;5615;49.304;10.576;2022-07-24T00:57:00;14.73;;;13.32;;
11121;SDS011;5615;49.304;10.576;2022-07-24T00:59:27;14.63;;;13.13;;
11121;SDS011;5615;49.304;10.576;2022-07-24T01:01:54;14.73;;;13.40;;
11121;SDS011;5615;49.304;10.576;2022-07-24T01:04:21;15.63;;;14.07;;
11121;SDS011;5615;49.304;10.576;2022-07-24T01:06:49;15.32;;;13.90;;
11121;SDS011;5615;49.304;10.576;2022-07-24T01:09:16;14.85;;;13.38;;
11121;SDS011;5615;49.304;10.576;2022-07-24T01:11:43;14.95;;;13.35;;
11121;SDS011;5615;49.304;10.576;2022-07-24T01:14:10;15.60;;;13.73;;
11121;SDS011;5615;49.304;10.576;2022-07-24T01:16:37;14.40;;;13.02;;
11121;SDS011;5615;49.304;10.576;2022-07-24T01:19:03;14.95;;;13.45;;
11121;SDS011;5615;49.304;10.576;2022-07-24T01:21:32;14.45;;;13.10;;
11121;SDS011;5615;49.304;10.576;2022-07-24T01:23:59;14.57;;;13.27;;
11121;SDS011;5615;49.304;10.576;2022-07-24T01:26:25;14.57;;;13.18;;
11121;SDS011;5615;49.304;10.576;2022-07-24T01:28:52;15.98;;;14.48;;
11121;SDS011;5615;49.304;10.576;2022-07-24T01:31:19;15.30;;;13.45;;
11121;SDS011;5615;49.304;10.576;2022-07-24T01:33:45;14.75;;;13.35;;
11121;SDS011;5615;49.304;10.576;2022-07-24T01:36:12;14.38;;;13.05;;
11121;SDS011;5615;49.304;10.576;2022-07-24T01:38:40;14.38;;;12.88;;
11121;SDS011;5615;49.304;10.576;2022-07-24T01:41:07;14.75;;;13.45;;
11121;SDS011;5615;49.304;10.576;2022-07-24T01:43:33;14.40;;;13.00;;
11121;SDS011;5615;49.304;10.576;2022-07-24T01:46:00;19.23;;;13.48;;
11121;SDS011;5615;49.304;10.576;2022-07-24T01:48:27;15.13;;;13.73;;
11121;SDS011;5615;49.304;10.576;2022-07-24T01:50:53;15.65;;;14.25;;
11121;SDS011;5615;49.304;10.576;2022-07-24T01:53:21;15.70;;;14.25;;
11121;SDS011;5615;49.304;10.576;2022-07-24T01:55:50;16.90;;;15.30;;
11121;SDS011;5615;49.304;10.576;2022-07-24T01:58:17;16.08;;;14.57;;
11121;SDS011;5615;49.304;10.576;2022-07-24T02:00:44;15.55;;;13.95;;
11121;SDS011;5615;49.304;10.576;2022-07-24T02:03:11;15.45;;;13.98;;
11121;SDS011;5615;49.304;10.576;2022-07-24T02:05:37;18.98;;;14.40;;
11121;SDS011;5615;49.304;10.576;2022-07-24T02:08:04;15.35;;;13.85;;
11121;SDS011;5615;49.304;10.576;2022-07-24T02:10:31;15.95;;;14.50;;
11121;SDS011;5615;49.304;10.576;2022-07-24T02:13:00;16.95;;;14.90;;
11121;SDS011;5615;49.304;10.576;2022-07-24T02:15:26;15.27;;;13.88;;
11121;SDS011;5615;49.304;10.576;2022-07-24T02:17:55;16.50;;;14.70;;
11121;SDS011;5615;49.304;10.576;2022-07-24T02:20:23;15.95;;;14.40;;
11121;SDS011;5615;49.304;10.576;2022-07-24T02:22:51;16.38;;;14.73;;
11121;SDS011;5615;49.304;10.576;2022-07-24T02:25:17;15.23;;;13.82;;
11121;SDS011;5615;49.304;10.576;2022-07-24T02:27:44;16.15;;;14.65;;
11121;SDS011;5615;49.304;10.576;2022-07-24T02:30:15;15.90;;;14.35;;
11121;SDS011;5615;49.304;10.576;2022-07-24T02:32:42;17.10;;;15.50;;
11121;SDS011;5615;49.304;10.576;2022-07-24T02:35:09;16.27;;;14.52;;
11121;SDS011;5615;49.304;10.576;2022-07-24T02:37:36;16.92;;;15.20;;
11121;SDS011;5615;49.304;10.576;2022-07-24T02:40:04;19.98;;;14.52;;
11121;SDS011;5615;49.304;10.576;2022-07-24T02:42:32;16.52;;;14.93;;
11121;SDS011;5615;49.304;10.576;2022-07-24T02:44:59;16.35;;;14.57;;
11121;SDS011;5615;49.304;10.576;2022-07-24T02:47:27;15.45;;;14.00;;
11121;SDS011;5615;49.304;10.576;2022-07-24T02:49:53;15.23;;;13.60;;
11121;SDS011;5615;49.304;10.576;2022-07-24T02:52:20;15.65;;;14.10;;
11121;SDS011;5615;49.304;10.576;2022-07-24T02:54:47;16.45;;;14.95;;
11121;SDS011;5615;49.304;10.576;2022-07-24T02:57:14;16.20;;;14.55;;
11121;SDS011;5615;49.304;10.576;2022-07-24T02:59:40;16.38;;;14.77;;
11121;SDS011;5615;49.304;10.576;2022-07-24T03:02:08;16.77;;;15.10;;
11121;SDS011;5615;49.304;10.576;2022-07-24T03:04:36;16.83;;;15.10;;
11121;SDS011;5615;49.304;10.576;2022-07-24T03:07:02;15.25;;;13.75;;
11121;SDS011;5615;49.304;10.576;2022-07-24T03:09:29;16.70;;;15.00;;
11121;SDS011;5615;49.304;10.576;2022-07-24T03:11:56;16.30;;;14.70;;
11121;SDS011;5615;49.304;10.576;2022-07-24T03:14:22;16.27;;;14.77;;
11121;SDS011;5615;49.304;10.576;2022-07-24T03:16:49;16.73;;;14.70;;
11121;SDS011;5615;49.304;10.576;2022-07-24T03:19:16;15.32;;;13.82;;
11121;SDS011;5615;49.304;10.576;2022-07-24T03:21:44;15.77;;;14.18;;
11121;SDS011;5615;49.304;10.576;2022-07-24T03:24:10;16.05;;;14.10;;
11121;SDS011;5615;49.304;10.576;2022-07-24T03:26:37;14.63;;;12.77;;
11121;SDS011;5615;49.304;10.576;2022-07-24T03:29:03;15.07;;;13.57;;
11121;SDS011;5615;49.304;10.576;2022-07-24T03:31:30;13.98;;;12.65;;
11121;SDS011;5615;49.304;10.576;2022-07-24T03:33:57;13.40;;;12.20;;
11121;SDS011;5615;49.304;10.576;2022-07-24T03:36:23;15.15;;;13.73;;
11121;SDS011;5615;49.304;10.576;2022-07-24T03:38:51;15.30;;;13.80;;
11121;SDS011;5615;49.304;10.576;2022-07-24T03:41:18;14.50;;;13.10;;
11121;SDS011;5615;49.304;10.576;2022-07-24T03:43:44;14.65;;;13.18;;
11121;SDS011;5615;49.304;10.576;2022-07-24T03:46:11;13.90;;;12.55;;
11121;SDS011;5615;49.304;10.576;2022-07-24T03:48:38;14.67;;;13.33;;
11121;SDS011;5615;49.304;10.576;2022-07-24T03:51:04;16.10;;;13.80;;
11121;SDS011;5615;49.304;10.576;2022-07-24T03:53:31;16.48;;;14.88;;
11121;SDS011;5615;49.304;10.576;2022-07-24T03:55:59;16.63;;;15.02;;
11121;SDS011;5615;49.304;10.576;2022-07-24T03:58:26;17.83;;;15.95;;
11121;SDS011;5615;49.304;10.576;2022-07-24T04:00:52;17.35;;;15.20;;
11121;SDS011;5615;49.304;10.576;2022-07-24T04:03:19;17.17;;;15.52;;
11121;SDS011;5615;49.304;10.576;2022-07-24T04:05:46;17.20;;;15.50;;
11121;SDS011;5615;49.304;10.576;2022-07-24T04:08:12;17.40;;;15.53;;
11121;SDS011;5615;49.304;10.576;2022-07-24T04:10:39;15.98;;;14.48;;
11121;SDS011;5615;49.304;10.576;2022-07-24T04:13:07;15.87;;;14.40;;
11121;SDS011;5615;49.304;10.576;2022-07-24T04:15:34;17.10;;;15.50;;
11121;SDS011;5615;49.304;10.576;2022-07-24T04:18:00;17.50;;;15.60;;
11121;SDS011;5615;49.304;10.576;2022-07-24T04:20:27;16.70;;;15.07;;
11121;SDS011;5615;49.304;10.576;2022-07-24T04:22:54;15.68;;;14.18;;
11121;SDS011;5615;49.304;10.576;2022-07-24T04:25:20;15.60;;;14.00;;
11121;SDS011;5615;49.304;10.576;2022-07-24T04:27:47;15.18;;;13.73;;
11121;SDS011;5615;49.304;10.576;2022-07-24T04:30:16;15.48;;;13.98;;
11121;SDS011;5615;49.304;10.576;2022-07-24T04:32:42;15.63;;;14.02;;
11121;SDS011;5615;49.304;10.576;2022-07-24T04:35:09;16.50;;;14.80;;
11121;SDS011;5615;49.304;10.576;2022-07-24T04:37:35;14.75;;;13.35;;
11121;SDS011;5615;49.304;10.576;2022-07-24T04:40:02;15.70;;;14.10;;
11121;SDS011;5615;49.304;10.576;2022-07-24T04:42:29;14.75;;;13.15;;
11121;SDS011;5615;49.304;10.576;2022-07-24T04:44:56;16.63;;;13.75;;
11121;SDS011;5615;49.304;10.576;2022-07-24T04:47:24;14.73;;;13.23;;
11121;SDS011;5615;49.304;10.576;2022-07-24T04:49:50;14.85;;;13.45;;
11121;SDS011;5615;49.304;10.576;2022-07-24T04:52:17;14.77;;;13.48;;
11121;SDS011;5615;49.304;10.576;2022-07-24T04:54:43;15.48;;;12.88;;
11121;SDS011;5615;49.304;10.576;2022-07-24T04:57:10;15.82;;;14.23;;
11121;SDS011;5615;49.304;10.576;2022-07-24T04:59:37;15.50;;;13.95;;
11121;SDS011;5615;49.304;10.576;2022-07-24T05:02:03;15.68;;;14.07;;
11121;SDS011;5615;49.304;10.576;2022-07-24T05:04:31;15.05;;;13.68;;
11121;SDS011;5615;49.304;10.576;2022-07-24T05:06:59;16.77;;;13.50;;
11121;SDS011;5615;49.304;10.576;2022-07-24T05:09:26;14.15;;;12.85;;
11121;SDS011;5615;49.304;10.576;2022-07-24T05:11:52;14.40;;;13.10;;
11121;SDS011;5615;49.304;10.576;2022-07-24T05:14:19;15.82;;;14.43;;
11121;SDS011;5615;49.304;10.576;2022-07-24T05:16:46;14.05;;;12.75;;
11121;SDS011;5615;49.304;10.576;2022-07-24T05:19:13;14.50;;;13.10;;
11121;SDS011;5615;49.304;10.576;2022-07-24T05:21:41;14.93;;;13.32;;
11121;SDS011;5615;49.304;10.576;2022-07-24T05:24:08;14.45;;;13.02;;
11121;SDS011;5615;49.304;10.576;2022-07-24T05:26:34;14.23;;;12.95;;
11121;SDS011;5615;49.304;10.576;2022-07-24T05:29:02;15.30;;;13.80;;
11121;SDS011;5615;49.304;10.576;2022-07-24T05:31:31;14.55;;;13.05;;
11121;SDS011;5615;49.304;10.576;2022-07-24T05:33:57;13.98;;;12.57;;
11121;SDS011;5615;49.304;10.576;2022-07-24T05:36:27;15.60;;;13.07;;
11121;SDS011;5615;49.304;10.576;2022-07-24T05:38:55;14.57;;;13.10;;
11121;SDS011;5615;49.304;10.576;2022-07-24T05:41:21;13.23;;;11.90;;
11121;SDS011;5615;49.304;10.576;2022-07-24T05:43:48;14.93;;;13.45;;
11121;SDS011;5615;49.304;10.576;2022-07-24T05:46:15;15.00;;;13.65;;
11121;SDS011;5615;49.304;10.576;2022-07-24T05:48:41;14.30;;;12.93;;
11121;SDS011;5615;49.304;10.576;2022-07-24T05:51:08;15.30;;;12.93;;
11121;SDS011;5615;49.304;10.576;2022-07-24T05:53:34;13.95;;;12.43;;
11121;SDS011;5615;49.304;10.576;2022-07-24T05:56:03;14.85;;;13.55;;
11121;SDS011;5615;49.304;10.576;2022-07-24T05:58:30;13.50;;;12.27;;
11121;SDS011;5615;49.304;10.576;2022-07-24T06:00:57;14.13;;;12.82;;
11121;SDS011;5615;49.304;10.576;2022-07-24T06:03:23;14.40;;;12.93;;
11121;SDS011;5615;49.304;10.576;2022-07-24T06:05:50;15.05;;;13.65;;
11121;SDS011;5615;49.304;10.576;2022-07-24T06:08:17;16.48;;;14.10;;
11121;SDS011;5615;49.304;10.576;2022-07-24T06:10:43;15.13;;;13.70;;
11121;SDS011;5615;49.304;10.576;2022-07-24T06:13:11;15.50;;;14.10;;
11121;SDS011;5615;49.304;10.576;2022-07-24T06:15:38;15.45;;;13.95;;
11121;SDS011;5615;49.304;10.576;2022-07-24T06:18:05;16.75;;;15.00;;
11121;SDS011;5615;49.304;10.576;2022-07-24T06:20:31;16.90;;;15.20;;
11121;SDS011;5615;49.304;10.576;2022-07-24T06:22:58;15.60;;;14.10;;
11121;SDS011;5615;49.304;10.576;2022-07-24T06:25:25;17.27;;;15.57;;
11121;SDS011;5615;49.304;10.576;2022-07-24T06:27:51;17.80;;;16.00;;
11121;SDS011;5615;49.304;10.576;2022-07-24T06:30:20;18.23;;;16.10;;
11121;SDS011;5615;49.304;10.576;2022-07-24T06:32:49;17.27;;;15.48;;
11121;SDS011;5615;49.304;10.576;2022-07-24T06:35:17;17.15;;;15.35;;
11121;SDS011;5615;49.304;10.576;2022-07-24T06:37:44;16.85;;;15.15;;
11121;SDS011;5615;49.304;10.576;2022-07-24T06:40:11;18.63;;;16.15;;
11121;SDS011;5615;49.304;10.576;2022-07-24T06:42:38;17.08;;;15.45;;
11121;SDS011;5615;49.304;10.576;2022-07-24T06:45:05;17.45;;;15.68;;
11121;SDS011;5615;49.304;10.576;2022-07-24T06:47:33;17.38;;;15.55;;
11121;SDS011;5615;49.304;10.576;2022-07-24T06:50:00;19.40;;;15.80;;
11121;SDS011;5615;49.304;10.576;2022-07-24T06:52:27;16.65;;;14.95;;
11121;SDS011;5615;49.304;10.576;2022-07-24T06:54:53;16.98;;;14.85;;
11121;SDS011;5615;49.304;10.576;2022-07-24T06:57:20;16.15;;;14.65;;
11121;SDS011;5615;49.304;10.576;2022-07-24T06:59:47;16.23;;;14.52;;
11121;SDS011;5615;49.304;10.576;2022-07-24T07:02:14;16.70;;;15.20;;
11121;SDS011;5615;49.304;10.576;2022-07-24T07:04:42;16.90;;;15.30;;
11121;SDS011;5615;49.304;10.576;2022-07-24T07:07:09;15.07;;;13.52;;
11121;SDS011;5615;49.304;10.576;2022-07-24T07:09:36;13.85;;;12.45;;
11121;SDS011;5615;49.304;10.576;2022-07-24T07:12:02;15.93;;;13.85;;
11121;SDS011;5615;49.304;10.576;2022-07-24T07:14:30;18.88;;;14.13;;
11121;SDS011;5615;49.304;10.576;2022-07-24T07:16:56;14.48;;;13.07;;
11121;SDS011;5615;49.304;10.576;2022-07-24T07:19:23;14.95;;;13.65;;
11121;SDS011;5615;49.304;10.576;2022-07-24T07:21:52;16.27;;;14.00;;
11121;SDS011;5615;49.304;10.576;2022-07-24T07:24:18;15.52;;;13.30;;
11121;SDS011;5615;49.304;10.576;2022-07-24T07:26:45;14.90;;;13.50;;
11121;SDS011;5615;49.304;10.576;2022-07-24T07:29:12;14.20;;;12.88;;
11121;SDS011;5615;49.304;10.576;2022-07-24T07:31:38;13.88;;;12.48;;
11121;SDS011;5615;49.304;10.576;2022-07-24T07:34:05;15.15;;;13.63;;
11121;SDS011;5615;49.304;10.576;2022-07-24T07:36:31;14.35;;;12.98;;
11121;SDS011;5615;49.304;10.576;2022-07-24T07:39:01;13.93;;;12.43;;
11121;SDS011;5615;49.304;10.576;2022-07-24T07:41:28;13.82;;;12.40;;
11121;SDS011;5615;49.304;10.576;2022-07-24T07:43:54;13.90;;;12.60;;
11121;SDS011;5615;49.304;10.576;2022-07-24T07:46:23;13.32;;;12.02;;
11121;SDS011;5615;49.304;10.576;2022-07-24T07:48:50;12.15;;;11.00;;
11121;SDS011;5615;49.304;10.576;2022-07-24T07:51:17;12.45;;;11.35;;
11121;SDS011;5615;49.304;10.576;2022-07-24T07:53:43;11.90;;;10.85;;
11121;SDS011;5615;49.304;10.576;2022-07-24T07:56:11;13.30;;;12.00;;
11121;SDS011;5615;49.304;10.576;2022-07-24T07:58:38;11.90;;;10.80;;
11121;SDS011;5615;49.304;10.576;2022-07-24T08:01:05;11.00;;;10.07;;
11121;SDS011;5615;49.304;10.576;2022-07-24T08:03:31;10.00;;;9.10;;
11121;SDS011;5615;49.304;10.576;2022-07-24T08:05:59;8.65;;;7.97;;
11121;SDS011;5615;49.304;10.576;2022-07-24T08:08:26;9.93;;;9.02;;
11121;SDS011;5615;49.304;10.576;2022-07-24T08:10:53;9.57;;;8.68;;
11121;SDS011;5615;49.304;10.576;2022-07-24T08:13:21;10.23;;;9.25;;
11121;SDS011;5615;49.304;10.576;2022-07-24T08:15:47;9.18;;;8.48;;
11121;SDS011;5615;49.304;10.576;2022-07-24T08:18:14;12.00;;;8.73;;
11121;SDS011;5615;49.304;10.576;2022-07-24T08:20:41;12.48;;;8.63;;
11121;SDS011;5615;49.304;10.576;2022-07-24T08:23:09;8.55;;;7.75;;
11121;SDS011;5615;49.304;10.576;2022-07-24T08:25:35;8.70;;;7.80;;
11121;SDS011;5615;49.304;10.576;2022-07-24T08:28:02;8.77;;;7.97;;
11121;SDS011;5615;49.304;10.576;2022-07-24T08:30:30;9.00;;;8.30;;
11121;SDS011;5615;49.304;10.576;2022-07-24T08:32:57;8.25;;;7.50;;
11121;SDS011;5615;49.304;10.576;2022-07-24T08:35:24;9.30;;;8.30;;
11121;SDS011;5615;49.304;10.576;2022-07-24T08:37:50;9.38;;;8.48;;
11121;SDS011;5615;49.304;10.576;2022-07-24T08:40:17;9.50;;;8.50;;
11121;SDS011;5615;49.304;10.576;2022-07-24T08:42:44;9.60;;;8.38;;
11121;SDS011;5615;49.304;10.576;2022-07-24T08:45:11;9.38;;;8.48;;
11121;SDS011;5615;49.304;10.576;2022-07-24T08:47:39;9.60;;;8.70;;
11121;SDS011;5615;49.304;10.576;2022-07-24T08:50:07;10.70;;;9.07;;
11121;SDS011;5615;49.304;10.576;2022-07-24T08:52:35;10.18;;;9.20;;
11121;SDS011;5615;49.304;10.576;2022-07-24T08:55:04;10.13;;;9.23;;
11121;SDS011;5615;49.304;10.576;2022-07-24T08:57:31;10.50;;;9.48;;
11121;SDS011;5615;49.304;10.576;2022-07-24T08:59:58;10.23;;;9.38;;
11121;SDS011;5615;49.304;10.576;2022-07-24T09:02:25;10.45;;;9.60;;
11121;SDS011;5615;49.304;10.576;2022-07-24T09:04:58;10.40;;;9.52;;
11121;SDS011;5615;49.304;10.576;2022-07-24T09:07:27;10.75;;;9.70;;
11121;SDS011;5615;49.304;10.576;2022-07-24T09:09:59;10.70;;;9.73;;
11121;SDS011;5615;49.304;10.576;2022-07-24T09:12:29;9.95;;;9.05;;
11121;SDS011;5615;49.304;10.576;2022-07-24T09:14:57;9.77;;;8.93;;
11121;SDS011;5615;49.304;10.576;2022-07-24T09:17:25;10.65;;;9.30;;
11121;SDS011;5615;49.304;10.576;2022-07-24T09:19:52;9.75;;;8.95;;
11121;SDS011;5615;49.304;10.576;2022-07-24T09:25:11;11.32;;;9.40;;
11121;SDS011;5615;49.304;10.576;2022-07-24T09:27:40;10.27;;;9.40;;
11121;SDS011;5615;49.304;10.576;2022-07-24T09:30:12;8.82;;;8.07;;
11121;SDS011;5615;49.304;10.576;2022-07-24T09:32:50;9.20;;;8.30;;
11121;SDS011;5615;49.304;10.576;2022-07-24T09:35:21;9.43;;;8.30;;
11121;SDS011;5615;49.304;10.576;2022-07-24T09:37:54;11.20;;;10.05;;
11121;SDS011;5615;49.304;10.576;2022-07-24T09:40:21;10.23;;;9.32;;
11121;SDS011;5615;49.304;10.576;2022-07-24T09:42:54;9.20;;;8.30;;
11121;SDS011;5615;49.304;10.576;2022-07-24T09:45:22;9.00;;;8.30;;
11121;SDS011;5615;49.304;10.576;2022-07-24T09:47:51;8.98;;;8.18;;
11121;SDS011;5615;49.304;10.576;2022-07-24T09:50:18;9.13;;;8.15;;
11121;SDS011;5615;49.304;10.576;2022-07-24T09:52:55;9.07;;;8.23;;
11121;SDS011;5615;49.304;10.576;2022-07-24T09:55:24;8.70;;;7.90;;
11121;SDS011;5615;49.304;10.576;2022-07-24T09:57:51;9.05;;;8.25;;
11121;SDS011;5615;49.304;10.576;2022-07-24T10:00:18;10.23;;;9.43;;
11121;SDS011;5615;49.304;10.576;2022-07-24T10:02:45;8.48;;;7.68;;
11121;SDS011;5615;49.304;10.576;2022-07-24T10:05:13;9.35;;;8.57;;
11121;SDS011;5615;49.304;10.576;2022-07-24T10:07:41;12.48;;;8.60;;
11121;SDS011;5615;49.304;10.576;2022-07-24T10:10:12;8.80;;;7.90;;
11121;SDS011;5615;49.304;10.576;2022-07-24T10:12:39;8.52;;;7.72;;
11121;SDS011;5615;49.304;10.576;2022-07-24T10:15:06;8.82;;;8.00;;
11121;SDS011;5615;49.304;10.576;2022-07-24T10:17:39;8.90;;;8.10;;
11121;SDS011;5615;49.304;10.576;2022-07-24T10:20:26;9.27;;;8.48;;
11121;SDS011;5615;49.304;10.576;2022-07-24T10:23:03;8.43;;;7.72;;
11121;SDS011;5615;49.304;10.576;2022-07-24T10:25:35;9.25;;;8.45;;
11121;SDS011;5615;49.304;10.576;2022-07-24T10:28:11;9.32;;;7.85;;
11121;SDS011;5615;49.304;10.576;2022-07-24T10:30:49;7.25;;;6.55;;
11121;SDS011;5615;49.304;10.576;2022-07-24T10:33:16;7.00;;;6.40;;
11121;SDS011;5615;49.304;10.576;2022-07-24T10:35:43;7.00;;;6.40;;
11121;SDS011;5615;49.304;10.576;2022-07-24T10:38:12;7.00;;;6.35;;
11121;SDS011;5615;49.304;10.576;2022-07-24T10:40:49;7.28;;;6.50;;
11121;SDS011;5615;49.304;10.576;2022-07-24T10:43:19;6.97;;;6.35;;
11121;SDS011;5615;49.304;10.576;2022-07-24T10:45:50;7.63;;;6.97;;
11121;SDS011;5615;49.304;10.576;2022-07-24T10:48:39;7.85;;;7.05;;
11121;SDS011;5615;49.304;10.576;2022-07-24T10:51:07;6.63;;;6.13;;
11121;SDS011;5615;49.304;10.576;2022-07-24T10:56:28;6.30;;;5.75;;
11121;SDS011;5615;49.304;10.576;2022-07-24T10:59:07;6.97;;;6.28;;
11121;SDS011;5615;49.304;10.576;2022-07-24T11:01:37;6.85;;;6.35;;
11121;SDS011;5615;49.304;10.576;2022-07-24T11:04:23;8.10;;;6.30;;
11121;SDS011;5615;49.304;10.576;2022-07-24T11:06:52;9.43;;;6.93;;
11121;SDS011;5615;49.304;10.576;2022-07-24T11:09:21;7.20;;;6.60;;
11121;SDS011;5615;49.304;10.576;2022-07-24T11:12:05;6.45;;;5.95;;
11121;SDS011;5615;49.304;10.576;2022-07-24T11:14:48;6.93;;;6.32;;
11121;SDS011;5615;49.304;10.576;2022-07-24T11:20:04;7.72;;;6.20;;
11121;SDS011;5615;49.304;10.576;2022-07-24T11:22:42;7.00;;;6.30;;
11121;SDS011;5615;49.304;10.576;2022-07-24T11:25:17;6.70;;;6.20;;
11121;SDS011;5615;49.304;10.576;2022-07-24T11:27:48;7.15;;;6.63;;
11121;SDS011;5615;49.304;10.576;2022-07-24T11:30:17;8.23;;;6.47;;
11121;SDS011;5615;49.304;10.576;2022-07-24T11:32:46;6.80;;;6.28;;
11121;SDS011;5615;49.304;10.576;2022-07-24T11:35:13;7.50;;;6.80;;
11121;SDS011;5615;49.304;10.576;2022-07-24T11:37:42;7.45;;;6.85;;
11121;SDS011;5615;49.304;10.576;2022-07-24T11:40:12;7.82;;;7.13;;
11121;SDS011;5615;49.304;10.576;2022-07-24T11:42:40;7.88;;;6.63;;
11121;SDS011;5615;49.304;10.576;2022-07-24T11:45:07;7.55;;;6.88;;
11121;SDS011;5615;49.304;10.576;2022-07-24T11:47:35;7.50;;;6.53;;
11121;SDS011;5615;49.304;10.576;2022-07-24T11:50:03;9.85;;;6.80;;
11121;SDS011;5615;49.304;10.576;2022-07-24T11:52:32;7.70;;;7.10;;
11121;SDS011;5615;49.304;10.576;2022-07-24T11:55:00;8.10;;;7.30;;
11121;SDS011;5615;49.304;10.576;2022-07-24T11:57:29;7.60;;;7.00;;
11121;SDS011;5615;49.304;10.576;2022-07-24T11:59:57;7.43;;;6.72;;
11121;SDS011;5615;49.304;10.576;2022-07-24T12:02:24;7.35;;;6.60;;
11121;SDS011;5615;49.304;10.576;2022-07-24T12:04:51;6.72;;;6.22;;
11121;SDS011;5615;49.304;10.576;2022-07-24T12:07:20;7.00;;;6.35;;
11121;SDS011;5615;49.304;10.576;2022-07-24T12:09:49;5.95;;;5.45;;
11121;SDS011;5615;49.304;10.576;2022-07-24T12:12:20;6.45;;;5.95;;
11121;SDS011;5615;49.304;10.576;2022-07-24T12:14:50;6.40;;;5.80;;
11121;SDS011;5615;49.304;10.576;2022-07-24T12:17:17;6.30;;;5.80;;
11121;SDS011;5615;49.304;10.576;2022-07-24T12:19:51;7.22;;;5.93;;
11121;SDS011;5615;49.304;10.576;2022-07-24T12:22:21;6.22;;;5.72;;
11121;SDS011;5615;49.304;10.576;2022-07-24T12:24:50;6.57;;;6.07;;
11121;SDS011;5615;49.304;10.576;2022-07-24T12:27:38;6.85;;;6.00;;
11121;SDS011;5615;49.304;10.576;2022-07-24T12:30:17;8.50;;;6.03;;
11121;SDS011;5615;49.304;10.576;2022-07-24T12:32:52;6.95;;;5.90;;
11121;SDS011;5615;49.304;10.576;2022-07-24T12:35:20;6.88;;;6.28;;
11121;SDS011;5615;49.304;10.576;2022-07-24T12:37:48;6.70;;;6.10;;
11121;SDS011;5615;49.304;10.576;2022-07-24T12:40:21;6.68;;;6.18;;
11121;SDS011;5615;49.304;10.576;2022-07-24T12:42:54;6.93;;;6.32;;
11121;SDS011;5615;49.304;10.576;2022-07-24T12:45:30;6.47;;;5.93;;
11121;SDS011;5615;49.304;10.576;2022-07-24T12:48:07;7.47;;;6.40;;
11121;SDS011;5615;49.304;10.576;2022-07-24T12:50:35;6.80;;;6.25;;
11121;SDS011;5615;49.304;10.576;2022-07-24T12:53:04;6.07;;;5.57;;
11121;SDS011;5615;49.304;10.576;2022-07-24T12:55:32;5.40;;;4.97;;
11121;SDS011;5615;49.304;10.576;2022-07-24T12:57:59;6.68;;;5.55;;
11121;SDS011;5615;49.304;10.576;2022-07-24T13:00:27;6.05;;;5.18;;
11121;SDS011;5615;49.304;10.576;2022-07-24T13:02:54;6.05;;;5.55;;
11121;SDS011;5615;49.304;10.576;2022-07-24T13:05:35;6.13;;;5.63;;
11121;SDS011;5615;49.304;10.576;2022-07-24T13:08:04;5.80;;;5.40;;
11121;SDS011;5615;49.304;10.576;2022-07-24T13:10:32;5.80;;;5.30;;
11121;SDS011;5615;49.304;10.576;2022-07-24T13:12:59;6.18;;;5.13;;
11121;SDS011;5615;49.304;10.576;2022-07-24T13:15:25;5.65;;;5.25;;
11121;SDS011;5615;49.304;10.576;2022-07-24T13:17:52;6.70;;;5.32;;
11121;SDS011;5615;49.304;10.576;2022-07-24T13:20:19;5.95;;;5.47;;
11121;SDS011;5615;49.304;10.576;2022-07-24T13:22:45;7.18;;;6.47;;
11121;SDS011;5615;49.304;10.576;2022-07-24T13:25:13;5.82;;;5.43;;
11121;SDS011;5615;49.304;10.576;2022-07-24T13:27:40;6.75;;;5.70;;
11121;SDS011;5615;49.304;10.576;2022-07-24T13:30:07;6.57;;;5.75;;
11121;SDS011;5615;49.304;10.576;2022-07-24T13:32:34;5.82;;;5.40;;
11121;SDS011;5615;49.304;10.576;2022-07-24T13:35:01;5.75;;;5.25;;
11121;SDS011;5615;49.304;10.576;2022-07-24T13:37:28;6.15;;;5.65;;
11121;SDS011;5615;49.304;10.576;2022-07-24T13:39:54;6.10;;;5.50;;
11121;SDS011;5615;49.304;10.576;2022-07-24T13:42:22;5.70;;;5.10;;
11121;SDS011;5615;49.304;10.576;2022-07-24T13:44:49;5.68;;;5.25;;
11121;SDS011;5615;49.304;10.576;2022-07-24T13:47:15;5.82;;;5.38;;
11121;SDS011;5615;49.304;10.576;2022-07-24T13:49:42;6.30;;;5.70;;
11121;SDS011;5615;49.304;10.576;2022-07-24T13:52:08;6.30;;;5.72;;
11121;SDS011;5615;49.304;10.576;2022-07-24T13:54:35;6.13;;;5.53;;
11121;SDS011;5615;49.304;10.576;2022-07-24T13:57:02;5.93;;;5.43;;
11121;SDS011;5615;49.304;10.576;2022-07-24T13:59:30;6.13;;;5.63;;
11121;SDS011;5615;49.304;10.576;2022-07-24T14:01:57;6.10;;;5.50;;
11121;SDS011;5615;49.304;10.576;2022-07-24T14:04:24;6.18;;;5.68;;
11121;SDS011;5615;49.304;10.576;2022-07-24T14:06:50;6.90;;;5.68;;
11121;SDS011;5615;49.304;10.576;2022-07-24T14:09:17;5.78;;;5.18;;
11121;SDS011;5615;49.304;10.576;2022-07-24T14:11:45;6.25;;;5.65;;
11121;SDS011;5615;49.304;10.576;2022-07-24T14:14:11;5.70;;;5.20;;
11121;SDS011;5615;49.304;10.576;2022-07-24T14:16:39;5.68;;;5.18;;
11121;SDS011;5615;49.304;10.576;2022-07-24T14:19:06;6.43;;;5.63;;
11121;SDS011;5615;49.304;10.576;2022-07-24T14:21:32;5.80;;;5.00;;
11121;SDS011;5615;49.304;10.576;2022-07-24T14:23:59;6.13;;;5.63;;
11121;SDS011;5615;49.304;10.576;2022-07-24T14:26:26;5.97;;;5.47;;
11121;SDS011;5615;49.304;10.576;2022-07-24T14:28:52;5.68;;;5.28;;
11121;SDS011;5615;49.304;10.576;2022-07-24T14:31:19;6.20;;;5.60;;
11121;SDS011;5615;49.304;10.576;2022-07-24T14:33:47;6.35;;;5.85;;
11121;SDS011;5615;49.304;10.576;2022-07-24T14:36:13;6.30;;;5.80;;
11121;SDS011;5615;49.304;10.576;2022-07-24T14:38:40;5.75;;;5.35;;
11121;SDS011;5615;49.304;10.576;2022-07-24T14:41:07;6.10;;;5.60;;
11121;SDS011;5615;49.304;10.576;2022-07-24T14:43:33;6.38;;;5.88;;
11121;SDS011;5615;49.304;10.576;2022-07-24T14:46:00;7.20;;;6.03;;